createdAt,value
2019-02-25T00:00:46.562Z,1038.42
2019-02-25T00:01:46.777Z,1038.37
2019-02-25T00:02:46.439Z,1038.4
2019-02-25T00:03:46.799Z,1038.38
2019-02-25T00:04:46.628Z,1038.36
2019-02-25T00:05:46.599Z,1038.31
2019-02-25T00:06:46.552Z,1038.29
2019-02-25T00:07:48.015Z,1038.29
2019-02-25T00:08:46.590Z,1038.27
2019-02-25T00:09:46.630Z,1038.29
2019-02-25T00:10:47.000Z,1038.32
2019-02-25T00:11:46.639Z,1038.34
2019-02-25T00:12:48.409Z,1038.34
2019-02-25T00:13:46.639Z,1038.36
2019-02-25T00:14:46.707Z,1038.36
2019-02-25T00:15:46.557Z,1038.39
2019-02-25T00:16:46.699Z,1038.34
2019-02-25T00:17:46.848Z,1038.3
2019-02-25T00:18:46.556Z,1038.32
2019-02-25T00:19:46.693Z,1038.28
2019-02-25T00:20:46.528Z,1038.29
2019-02-25T00:21:47.473Z,1038.3
2019-02-25T00:22:46.881Z,1038.3
2019-02-25T00:23:46.616Z,1038.27
2019-02-25T00:24:46.545Z,1038.27
2019-02-25T00:25:46.583Z,1038.26
2019-02-25T00:26:46.908Z,1038.25
2019-02-25T00:27:46.647Z,1038.26
2019-02-25T00:28:46.557Z,1038.24
2019-02-25T00:29:47.333Z,1038.23
2019-02-25T00:30:47.447Z,1038.22
2019-02-25T00:31:46.937Z,1038.22
2019-02-25T00:32:47.649Z,1038.22
2019-02-25T00:33:46.624Z,1038.19
2019-02-25T00:34:46.751Z,1038.19
2019-02-25T00:35:47.077Z,1038.21
2019-02-25T00:36:46.749Z,1038.21
2019-02-25T00:37:46.571Z,1038.23
2019-02-25T00:38:46.776Z,1038.21
2019-02-25T00:39:46.505Z,1038.19
2019-02-25T00:40:46.623Z,1038.18
2019-02-25T00:41:46.797Z,1038.17
2019-02-25T00:42:46.986Z,1038.16
2019-02-25T00:43:46.636Z,1038.15
2019-02-25T00:44:46.545Z,1038.18
2019-02-25T00:45:46.730Z,1038.17
2019-02-25T00:46:46.503Z,1038.2
2019-02-25T00:47:46.596Z,1038.2
2019-02-25T00:48:46.842Z,1038.2
2019-02-25T00:49:47.157Z,1038.18
2019-02-25T00:50:48.353Z,1038.18
2019-02-25T00:51:47.569Z,1038.22
2019-02-25T00:52:46.609Z,1038.25
2019-02-25T00:53:46.517Z,1038.24
2019-02-25T00:54:46.645Z,1038.27
2019-02-25T00:55:46.600Z,1038.24
2019-02-25T00:56:46.561Z,1038.27
2019-02-25T00:57:46.499Z,1038.29
2019-02-25T00:58:46.492Z,1038.3
2019-02-25T00:59:46.821Z,1038.27
2019-02-25T01:00:47.040Z,1038.3
2019-02-25T01:01:46.592Z,1038.32
2019-02-25T01:02:46.546Z,1038.32
2019-02-25T01:03:46.538Z,1038.32
2019-02-25T01:04:46.739Z,1038.31
2019-02-25T01:05:46.589Z,1038.33
2019-02-25T01:06:47.213Z,1038.3
2019-02-25T01:07:46.832Z,1038.32
2019-02-25T01:08:46.560Z,1038.33
2019-02-25T01:09:46.600Z,1038.31
2019-02-25T01:10:46.651Z,1038.32
2019-02-25T01:11:48.315Z,1038.31
2019-02-25T01:12:47.239Z,1038.29
2019-02-25T01:13:47.408Z,1038.28
2019-02-25T01:14:46.546Z,1038.3
2019-02-25T01:15:46.710Z,1038.28
2019-02-25T01:16:46.574Z,1038.29
2019-02-25T01:17:46.622Z,1038.29
2019-02-25T01:18:46.571Z,1038.26
2019-02-25T01:19:46.754Z,1038.23
2019-02-25T01:20:47.049Z,1038.26
2019-02-25T01:21:48.298Z,1038.23
2019-02-25T01:22:47.331Z,1038.24
2019-02-25T01:23:46.530Z,1038.23
2019-02-25T01:24:47.378Z,1038.22
2019-02-25T01:25:46.674Z,1038.25
2019-02-25T01:26:46.794Z,1038.31
2019-02-25T01:27:48.288Z,1038.28
2019-02-25T01:28:47.004Z,1038.25
2019-02-25T01:29:48.299Z,1038.24
2019-02-25T01:30:46.711Z,1038.25
2019-02-25T01:31:46.461Z,1038.21
2019-02-25T01:32:47.038Z,1038.22
2019-02-25T01:33:46.406Z,1038.24
2019-02-25T01:34:47.395Z,1038.23
2019-02-25T01:35:46.258Z,1038.24
2019-02-25T01:36:46.251Z,1038.18
2019-02-25T01:37:46.254Z,1038.19
2019-02-25T01:38:46.261Z,1038.18
2019-02-25T01:39:46.255Z,1038.19
2019-02-25T01:40:46.682Z,1038.18
2019-02-25T01:41:46.536Z,1038.15
2019-02-25T01:42:47.306Z,1038.14
2019-02-25T01:43:48.274Z,1038.14
2019-02-25T01:44:46.253Z,1038.14
2019-02-25T01:45:46.247Z,1038.1
2019-02-25T01:46:46.499Z,1038.12
2019-02-25T01:47:47.337Z,1038.02
2019-02-25T01:48:46.425Z,1038.03
2019-02-25T01:49:46.481Z,1038.06
2019-02-25T01:50:46.652Z,1038.04
2019-02-25T01:51:46.706Z,1038.03
2019-02-25T01:52:47.176Z,1037.95
2019-02-25T01:53:46.515Z,1037.96
2019-02-25T01:54:46.390Z,1037.96
2019-02-25T01:55:46.873Z,1038
2019-02-25T01:56:47.507Z,1037.98
2019-02-25T01:57:46.464Z,1037.94
2019-02-25T01:58:47.097Z,1037.95
2019-02-25T01:59:46.400Z,1037.97
2019-02-25T02:00:46.499Z,1037.92
2019-02-25T02:01:46.412Z,1037.92
2019-02-25T02:02:47.374Z,1037.94
2019-02-25T02:03:46.506Z,1037.9
2019-02-25T02:04:46.455Z,1037.89
2019-02-25T02:05:46.392Z,1037.91
2019-02-25T02:06:48.180Z,1037.93
2019-02-25T02:07:46.400Z,1037.94
2019-02-25T02:08:46.658Z,1037.87
2019-02-25T02:09:46.678Z,1037.94
2019-02-25T02:10:46.674Z,1038.02
2019-02-25T02:11:46.487Z,1038.03
2019-02-25T02:12:46.383Z,1038.07
2019-02-25T02:13:46.446Z,1038.04
2019-02-25T02:14:46.577Z,1037.99
2019-02-25T02:15:48.221Z,1038.01
2019-02-25T02:16:46.606Z,1037.97
2019-02-25T02:17:48.217Z,1037.97
2019-02-25T02:18:47.130Z,1037.99
2019-02-25T02:19:47.239Z,1038.02
2019-02-25T02:20:46.407Z,1037.97
2019-02-25T02:21:46.638Z,1038.02
2019-02-25T02:22:46.384Z,1037.98
2019-02-25T02:23:46.479Z,1038.04
2019-02-25T02:24:46.358Z,1038.05
2019-02-25T02:25:46.512Z,1038.03
2019-02-25T02:26:46.703Z,1038.09
2019-02-25T02:27:46.337Z,1038.06
2019-02-25T02:28:46.454Z,1038.05
2019-02-25T02:29:46.353Z,1038.05
2019-02-25T02:30:46.621Z,1038.02
2019-02-25T02:31:46.511Z,1038.05
2019-02-25T02:32:47.326Z,1038.06
2019-02-25T02:33:46.185Z,1038.08
2019-02-25T02:34:46.529Z,1038.12
2019-02-25T02:35:47.534Z,1038.08
2019-02-25T02:36:46.631Z,1038.1
2019-02-25T02:37:46.502Z,1038.08
2019-02-25T02:38:46.649Z,1038.04
2019-02-25T02:39:47.163Z,1038
2019-02-25T02:40:48.202Z,1038.02
2019-02-25T02:41:46.407Z,1038.04
2019-02-25T02:42:46.345Z,1038.07
2019-02-25T02:43:46.852Z,1038.05
2019-02-25T02:44:46.581Z,1038
2019-02-25T02:45:46.583Z,1038
2019-02-25T02:46:46.473Z,1037.96
2019-02-25T02:47:46.333Z,1037.98
2019-02-25T02:48:46.508Z,1037.96
2019-02-25T02:49:46.822Z,1037.96
2019-02-25T02:50:46.936Z,1037.97
2019-02-25T02:51:46.948Z,1037.99
2019-02-25T02:52:46.444Z,1037.96
2019-02-25T02:53:46.647Z,1037.93
2019-02-25T02:54:46.651Z,1037.94
2019-02-25T02:55:46.295Z,1037.96
2019-02-25T02:56:46.373Z,1037.98
2019-02-25T02:57:46.367Z,1037.96
2019-02-25T02:58:46.710Z,1038.01
2019-02-25T02:59:46.684Z,1037.99
2019-02-25T03:00:46.339Z,1038.05
2019-02-25T03:01:47.311Z,1038.02
2019-02-25T03:02:46.451Z,1038.03
2019-02-25T03:03:48.166Z,1038.03
2019-02-25T03:04:48.153Z,1038.01
2019-02-25T03:05:46.420Z,1038.03
2019-02-25T03:06:47.143Z,1038.01
2019-02-25T03:07:46.737Z,1037.98
2019-02-25T03:08:46.507Z,1038
2019-02-25T03:09:46.658Z,1038.01
2019-02-25T03:10:46.422Z,1038.04
2019-02-25T03:11:46.389Z,1038.04
2019-02-25T03:12:46.400Z,1038.06
2019-02-25T03:13:46.374Z,1038.08
2019-02-25T03:14:46.687Z,1038.09
2019-02-25T03:15:46.695Z,1038.08
2019-02-25T03:16:46.703Z,1038.1
2019-02-25T03:17:46.600Z,1038.12
2019-02-25T03:18:47.025Z,1038.1
2019-02-25T03:19:46.381Z,1038.12
2019-02-25T03:20:46.497Z,1038.13
2019-02-25T03:21:46.960Z,1038.1
2019-02-25T03:22:46.964Z,1038.09
2019-02-25T03:23:47.152Z,1038.11
2019-02-25T03:24:46.569Z,1038.12
2019-02-25T03:25:46.274Z,1038.14
2019-02-25T03:26:46.457Z,1038.15
2019-02-25T03:27:46.423Z,1038.2
2019-02-25T03:28:46.574Z,1038.23
2019-02-25T03:29:46.575Z,1038.27
2019-02-25T03:30:48.121Z,1038.26
2019-02-25T03:31:46.803Z,1038.3
2019-02-25T03:32:46.351Z,1038.29
2019-02-25T03:33:46.374Z,1038.27
2019-02-25T03:34:46.365Z,1038.31
2019-02-25T03:35:46.398Z,1038.26
2019-02-25T03:36:46.549Z,1038.28
2019-02-25T03:37:46.831Z,1038.29
2019-02-25T03:38:46.257Z,1038.27
2019-02-25T03:39:46.385Z,1038.36
2019-02-25T03:40:46.258Z,1038.33
2019-02-25T03:41:46.079Z,1038.27
2019-02-25T03:42:46.361Z,1038.27
2019-02-25T03:43:46.280Z,1038.31
2019-02-25T03:44:47.185Z,1038.3
2019-02-25T03:45:47.092Z,1038.32
2019-02-25T03:46:46.331Z,1038.32
2019-02-25T03:47:46.347Z,1038.35
2019-02-25T03:48:46.608Z,1038.28
2019-02-25T03:49:46.604Z,1038.29
2019-02-25T03:50:46.373Z,1038.29
2019-02-25T03:51:46.287Z,1038.31
2019-02-25T03:52:46.527Z,1038.29
2019-02-25T03:53:48.086Z,1038.28
2019-02-25T03:54:46.361Z,1038.26
2019-02-25T03:55:46.446Z,1038.24
2019-02-25T03:56:46.377Z,1038.26
2019-02-25T03:57:46.288Z,1038.27
2019-02-25T03:58:47.698Z,1038.27
2019-02-25T03:59:46.677Z,1038.22
2019-02-25T04:00:46.467Z,1038.24
2019-02-25T04:01:46.594Z,1038.3
2019-02-25T04:02:46.583Z,1038.32
2019-02-25T04:03:47.082Z,1038.33
2019-02-25T04:04:48.056Z,1038.31
2019-02-25T04:05:46.241Z,1038.34
2019-02-25T04:06:47.132Z,1038.37
2019-02-25T04:07:46.256Z,1038.36
2019-02-25T04:08:46.429Z,1038.36
2019-02-25T04:09:46.483Z,1038.39
2019-02-25T04:10:46.438Z,1038.33
2019-02-25T04:11:46.552Z,1038.34
2019-02-25T04:12:46.352Z,1038.31
2019-02-25T04:13:46.762Z,1038.36
2019-02-25T04:14:46.281Z,1038.38
2019-02-25T04:15:46.397Z,1038.38
2019-02-25T04:16:46.581Z,1038.42
2019-02-25T04:17:46.298Z,1038.37
2019-02-25T04:18:46.207Z,1038.35
2019-02-25T04:19:46.597Z,1038.38
2019-02-25T04:20:46.504Z,1038.36
2019-02-25T04:21:46.321Z,1038.4
2019-02-25T04:22:46.422Z,1038.38
2019-02-25T04:23:46.419Z,1038.37
2019-02-25T04:24:46.732Z,1038.38
2019-02-25T04:25:46.010Z,1038.39
2019-02-25T04:26:46.204Z,1038.4
2019-02-25T04:27:46.010Z,1038.35
2019-02-25T04:28:48.024Z,1038.35
2019-02-25T04:29:46.458Z,1038.36
2019-02-25T04:30:46.473Z,1038.36
2019-02-25T04:31:46.266Z,1038.39
2019-02-25T04:32:46.251Z,1038.34
2019-02-25T04:33:48.084Z,1038.39
2019-02-25T04:34:46.277Z,1038.32
2019-02-25T04:35:46.218Z,1038.34
2019-02-25T04:36:46.464Z,1038.37
2019-02-25T04:37:46.154Z,1038.41
2019-02-25T04:38:46.359Z,1038.39
2019-02-25T04:39:46.592Z,1038.41
2019-02-25T04:40:46.347Z,1038.44
2019-02-25T04:41:46.643Z,1038.42
2019-02-25T04:42:46.190Z,1038.46
2019-02-25T04:43:46.257Z,1038.46
2019-02-25T04:44:46.293Z,1038.45
2019-02-25T04:45:46.888Z,1038.45
2019-02-25T04:46:46.365Z,1038.45
2019-02-25T04:47:46.479Z,1038.41
2019-02-25T04:48:46.311Z,1038.41
2019-02-25T04:49:46.243Z,1038.42
2019-02-25T04:50:47.990Z,1038.43
2019-02-25T04:51:46.121Z,1038.39
2019-02-25T04:52:46.148Z,1038.37
2019-02-25T04:53:47.987Z,1038.38
2019-02-25T04:54:46.534Z,1038.38
2019-02-25T04:55:46.335Z,1038.41
2019-02-25T04:56:47.001Z,1038.36
2019-02-25T04:57:47.992Z,1038.4
2019-02-25T04:58:46.347Z,1038.43
2019-02-25T04:59:46.259Z,1038.39
2019-02-25T05:00:46.139Z,1038.37
2019-02-25T05:01:47.394Z,1038.36
2019-02-25T05:02:47.988Z,1038.37
2019-02-25T05:03:46.230Z,1038.37
2019-02-25T05:04:46.486Z,1038.35
2019-02-25T05:05:46.396Z,1038.34
2019-02-25T05:06:46.314Z,1038.38
2019-02-25T05:07:46.401Z,1038.37
2019-02-25T05:08:46.478Z,1038.37
2019-02-25T05:09:46.414Z,1038.41
2019-02-25T05:10:47.136Z,1038.33
2019-02-25T05:11:46.639Z,1038.39
2019-02-25T05:12:47.149Z,1038.39
2019-02-25T05:13:46.187Z,1038.37
2019-02-25T05:14:47.974Z,1038.39
2019-02-25T05:15:46.669Z,1038.45
2019-02-25T05:16:46.233Z,1038.41
2019-02-25T05:17:46.488Z,1038.41
2019-02-25T05:18:46.367Z,1038.4
2019-02-25T05:19:46.589Z,1038.47
2019-02-25T05:20:46.281Z,1038.39
2019-02-25T05:21:46.076Z,1038.4
2019-02-25T05:22:46.809Z,1038.36
2019-02-25T05:23:46.215Z,1038.35
2019-02-25T05:24:46.251Z,1038.34
2019-02-25T05:25:46.343Z,1038.32
2019-02-25T05:26:46.176Z,1038.32
2019-02-25T05:27:46.203Z,1038.28
2019-02-25T05:28:47.943Z,1038.28
2019-02-25T05:29:46.249Z,1038.33
2019-02-25T05:30:46.208Z,1038.28
2019-02-25T05:31:46.145Z,1038.3
2019-02-25T05:32:46.269Z,1038.3
2019-02-25T05:33:46.677Z,1038.29
2019-02-25T05:34:47.921Z,1038.25
2019-02-25T05:35:46.080Z,1038.24
2019-02-25T05:36:46.054Z,1038.31
2019-02-25T05:37:46.296Z,1038.32
2019-02-25T05:38:46.511Z,1038.33
2019-02-25T05:39:46.655Z,1038.3
2019-02-25T05:40:46.414Z,1038.34
2019-02-25T05:41:46.049Z,1038.35
2019-02-25T05:42:46.190Z,1038.33
2019-02-25T05:43:46.434Z,1038.32
2019-02-25T05:44:46.319Z,1038.31
2019-02-25T05:45:46.550Z,1038.29
2019-02-25T05:46:46.675Z,1038.26
2019-02-25T05:47:46.265Z,1038.32
2019-02-25T05:48:46.474Z,1038.38
2019-02-25T05:49:46.262Z,1038.36
2019-02-25T05:50:49.674Z,1038.36
2019-02-25T05:51:46.048Z,1038.4
2019-02-25T05:52:47.001Z,1038.37
2019-02-25T05:53:46.397Z,1038.33
2019-02-25T05:54:46.415Z,1038.33
2019-02-25T05:55:46.009Z,1038.33
2019-02-25T05:56:46.652Z,1038.29
2019-02-25T05:57:46.240Z,1038.39
2019-02-25T05:58:46.441Z,1038.31
2019-02-25T05:59:46.646Z,1038.39
2019-02-25T06:00:46.252Z,1038.35
2019-02-25T06:01:46.041Z,1038.42
2019-02-25T06:02:46.330Z,1038.41
2019-02-25T06:03:46.360Z,1038.37
2019-02-25T06:04:46.469Z,1038.36
2019-02-25T06:05:47.884Z,1038.37
2019-02-25T06:06:46.788Z,1038.37
2019-02-25T06:07:47.883Z,1038.36
2019-02-25T06:08:47.874Z,1038.37
2019-02-25T06:09:46.066Z,1038.34
2019-02-25T06:10:46.127Z,1038.4
2019-02-25T06:11:46.148Z,1038.38
2019-02-25T06:12:46.089Z,1038.39
2019-02-25T06:13:46.326Z,1038.38
2019-02-25T06:14:46.178Z,1038.45
2019-02-25T06:15:46.018Z,1038.43
2019-02-25T06:16:47.266Z,1038.43
2019-02-25T06:17:47.148Z,1038.45
2019-02-25T06:18:47.866Z,1038.43
2019-02-25T06:19:47.851Z,1038.41
2019-02-25T06:20:46.007Z,1038.44
2019-02-25T06:21:46.275Z,1038.43
2019-02-25T06:22:46.034Z,1038.47
2019-02-25T06:23:46.066Z,1038.45
2019-02-25T06:24:46.293Z,1038.46
2019-02-25T06:25:46.092Z,1038.54
2019-02-25T06:26:46.406Z,1038.54
2019-02-25T06:27:46.970Z,1038.57
2019-02-25T06:28:46.416Z,1038.59
2019-02-25T06:29:46.532Z,1038.6
2019-02-25T06:30:46.251Z,1038.59
2019-02-25T06:31:46.448Z,1038.56
2019-02-25T06:32:46.039Z,1038.6
2019-02-25T06:33:47.755Z,1038.56
2019-02-25T06:34:46.364Z,1038.58
2019-02-25T06:35:46.493Z,1038.54
2019-02-25T06:36:46.109Z,1038.53
2019-02-25T06:37:46.137Z,1038.53
2019-02-25T06:38:46.495Z,1038.58
2019-02-25T06:39:46.982Z,1038.54
2019-02-25T06:40:46.055Z,1038.58
2019-02-25T06:41:46.014Z,1038.64
2019-02-25T06:42:46.057Z,1038.7
2019-02-25T06:43:46.119Z,1038.66
2019-02-25T06:44:46.052Z,1038.65
2019-02-25T06:45:46.094Z,1038.64
2019-02-25T06:46:46.856Z,1038.63
2019-02-25T06:47:47.809Z,1038.64
2019-02-25T06:48:46.351Z,1038.69
2019-02-25T06:49:46.005Z,1038.74
2019-02-25T06:50:46.015Z,1038.72
2019-02-25T06:51:46.271Z,1038.77
2019-02-25T06:52:46.107Z,1038.78
2019-02-25T06:53:46.248Z,1038.74
2019-02-25T06:54:46.053Z,1038.72
2019-02-25T06:55:46.560Z,1038.77
2019-02-25T06:56:46.111Z,1038.72
2019-02-25T06:57:46.416Z,1038.75
2019-02-25T06:58:46.214Z,1038.73
2019-02-25T06:59:46.004Z,1038.77
2019-02-25T07:00:47.791Z,1038.73
2019-02-25T07:01:47.262Z,1038.73
2019-02-25T07:02:46.066Z,1038.77
2019-02-25T07:03:46.348Z,1038.8
2019-02-25T07:04:45.954Z,1038.78
2019-02-25T07:05:46.464Z,1038.82
2019-02-25T07:06:47.767Z,1038.81
2019-02-25T07:07:46.215Z,1038.8
2019-02-25T07:08:46.080Z,1038.78
2019-02-25T07:09:45.974Z,1038.73
2019-02-25T07:10:45.967Z,1038.75
2019-02-25T07:11:46.498Z,1038.68
2019-02-25T07:12:46.107Z,1038.72
2019-02-25T07:13:46.066Z,1038.73
2019-02-25T07:14:47.609Z,1038.78
2019-02-25T07:15:45.998Z,1038.77
2019-02-25T07:16:47.253Z,1038.77
2019-02-25T07:17:46.134Z,1038.77
2019-02-25T07:18:47.780Z,1038.7
2019-02-25T07:19:45.749Z,1038.7
2019-02-25T07:20:45.907Z,1038.72
2019-02-25T07:21:46.582Z,1038.69
2019-02-25T07:22:46.678Z,1038.67
2019-02-25T07:23:46.048Z,1038.72
2019-02-25T07:24:53.154Z,1038.67
2019-02-25T07:25:46.391Z,1038.7
2019-02-25T07:26:46.014Z,1038.72
2019-02-25T07:27:46.200Z,1038.68
2019-02-25T07:28:46.041Z,1038.75
2019-02-25T07:29:45.993Z,1038.74
2019-02-25T07:30:46.339Z,1038.74
2019-02-25T07:31:45.933Z,1038.7
2019-02-25T07:32:46.439Z,1038.68
2019-02-25T07:33:45.995Z,1038.72
2019-02-25T07:34:46.530Z,1038.71
2019-02-25T07:35:46.029Z,1038.67
2019-02-25T07:36:46.369Z,1038.7
2019-02-25T07:37:46.067Z,1038.72
2019-02-25T07:38:46.274Z,1038.7
2019-02-25T07:39:45.981Z,1038.72
2019-02-25T07:40:46.091Z,1038.65
2019-02-25T07:41:46.134Z,1038.69
2019-02-25T07:42:46.298Z,1038.74
2019-02-25T07:43:46.822Z,1038.72
2019-02-25T07:44:47.029Z,1038.75
2019-02-25T07:45:47.731Z,1038.8
2019-02-25T07:46:46.224Z,1038.76
2019-02-25T07:47:46.022Z,1038.76
2019-02-25T07:48:46.904Z,1038.78
2019-02-25T07:49:46.142Z,1038.76
2019-02-25T07:50:47.642Z,1038.75
2019-02-25T07:51:46.065Z,1038.75
2019-02-25T07:52:46.234Z,1038.77
2019-02-25T07:53:45.973Z,1038.74
2019-02-25T07:54:46.177Z,1038.75
2019-02-25T07:55:46.001Z,1038.74
2019-02-25T07:56:46.084Z,1038.79
2019-02-25T07:57:46.092Z,1038.78
2019-02-25T07:58:45.956Z,1038.75
2019-02-25T07:59:46.417Z,1038.73
2019-02-25T08:00:46.111Z,1038.74
2019-02-25T08:01:45.973Z,1038.71
2019-02-25T08:02:45.856Z,1038.73
2019-02-25T08:03:46.133Z,1038.7
2019-02-25T08:04:45.943Z,1038.67
2019-02-25T08:05:46.931Z,1038.65
2019-02-25T08:06:47.696Z,1038.66
2019-02-25T08:07:45.982Z,1038.67
2019-02-25T08:08:46.003Z,1038.63
2019-02-25T08:09:46.391Z,1038.6
2019-02-25T08:10:45.969Z,1038.58
2019-02-25T08:11:46.084Z,1038.56
2019-02-25T08:12:46.189Z,1038.55
2019-02-25T08:13:46.004Z,1038.59
2019-02-25T08:14:46.200Z,1038.61
2019-02-25T08:15:46.075Z,1038.64
2019-02-25T08:16:46.016Z,1038.64
2019-02-25T08:17:45.957Z,1038.63
2019-02-25T08:18:45.956Z,1038.62
2019-02-25T08:19:46.136Z,1038.63
2019-02-25T08:20:46.751Z,1038.57
2019-02-25T08:21:45.920Z,1038.6
2019-02-25T08:22:46.367Z,1038.54
2019-02-25T08:23:45.974Z,1038.54
2019-02-25T08:24:47.661Z,1038.51
2019-02-25T08:25:46.179Z,1038.52
2019-02-25T08:26:46.698Z,1038.56
2019-02-25T08:27:45.888Z,1038.59
2019-02-25T08:28:45.844Z,1038.61
2019-02-25T08:29:46.229Z,1038.64
2019-02-25T08:30:46.267Z,1038.6
2019-02-25T08:31:45.886Z,1038.61
2019-02-25T08:32:46.764Z,1038.66
2019-02-25T08:33:46.126Z,1038.65
2019-02-25T08:34:45.907Z,1038.67
2019-02-25T08:35:45.918Z,1038.66
2019-02-25T08:36:46.754Z,1038.71
2019-02-25T08:37:47.320Z,1038.68
2019-02-25T08:38:46.160Z,1038.67
2019-02-25T08:39:46.059Z,1038.68
2019-02-25T08:40:45.762Z,1038.69
2019-02-25T08:41:46.076Z,1038.65
2019-02-25T08:42:46.249Z,1038.62
2019-02-25T08:43:46.035Z,1038.65
2019-02-25T08:44:45.996Z,1038.63
2019-02-25T08:45:45.826Z,1038.61
2019-02-25T08:46:46.008Z,1038.63
2019-02-25T08:47:46.116Z,1038.63
2019-02-25T08:48:46.333Z,1038.62
2019-02-25T08:49:46.700Z,1038.6
2019-02-25T08:50:46.133Z,1038.61
2019-02-25T08:51:45.913Z,1038.58
2019-02-25T08:52:47.626Z,1038.55
2019-02-25T08:53:46.061Z,1038.59
2019-02-25T08:54:45.797Z,1038.59
2019-02-25T08:55:46.010Z,1038.62
2019-02-25T08:56:46.075Z,1038.67
2019-02-25T08:57:45.965Z,1038.66
2019-02-25T08:58:45.746Z,1038.69
2019-02-25T08:59:45.907Z,1038.68
2019-02-25T09:00:47.612Z,1038.72
2019-02-25T09:01:45.809Z,1038.7
2019-02-25T09:02:45.786Z,1038.71
2019-02-25T09:03:46.021Z,1038.7
2019-02-25T09:04:46.628Z,1038.75
2019-02-25T09:05:45.898Z,1038.77
2019-02-25T09:06:46.040Z,1038.82
2019-02-25T09:07:45.758Z,1038.82
2019-02-25T09:08:46.674Z,1038.79
2019-02-25T09:09:45.792Z,1038.77
2019-02-25T09:10:46.993Z,1038.71
2019-02-25T09:11:46.174Z,1038.71
2019-02-25T09:12:45.777Z,1038.73
2019-02-25T09:13:46.201Z,1038.74
2019-02-25T09:14:46.194Z,1038.68
2019-02-25T09:15:45.742Z,1038.71
2019-02-25T09:16:47.347Z,1038.69
2019-02-25T09:17:46.120Z,1038.71
2019-02-25T09:18:46.119Z,1038.77
2019-02-25T09:19:45.748Z,1038.72
2019-02-25T09:20:46.134Z,1038.76
2019-02-25T09:21:46.039Z,1038.76
2019-02-25T09:22:45.812Z,1038.78
2019-02-25T09:23:46.152Z,1038.8
2019-02-25T09:24:45.712Z,1038.8
2019-02-25T09:25:45.895Z,1038.8
2019-02-25T09:26:45.977Z,1038.76
2019-02-25T09:27:46.494Z,1038.8
2019-02-25T09:28:45.984Z,1038.86
2019-02-25T09:29:47.563Z,1038.79
2019-02-25T09:30:46.003Z,1038.79
2019-02-25T09:31:46.115Z,1038.83
2019-02-25T09:32:46.300Z,1038.88
2019-02-25T09:33:46.025Z,1038.86
2019-02-25T09:34:47.309Z,1038.86
2019-02-25T09:35:45.936Z,1038.9
2019-02-25T09:36:46.046Z,1038.89
2019-02-25T09:37:45.880Z,1038.86
2019-02-25T09:38:47.291Z,1038.82
2019-02-25T09:39:45.796Z,1038.84
2019-02-25T09:40:45.672Z,1038.83
2019-02-25T09:41:46.066Z,1038.8
2019-02-25T09:42:45.740Z,1038.78
2019-02-25T09:43:47.537Z,1038.76
2019-02-25T09:44:45.739Z,1038.75
2019-02-25T09:45:45.730Z,1038.77
2019-02-25T09:46:46.244Z,1038.78
2019-02-25T09:47:45.713Z,1038.8
2019-02-25T09:48:46.035Z,1038.78
2019-02-25T09:49:46.019Z,1038.82
2019-02-25T09:50:45.713Z,1038.77
2019-02-25T09:51:45.686Z,1038.79
2019-02-25T09:52:45.663Z,1038.75
2019-02-25T09:53:46.542Z,1038.77
2019-02-25T09:54:45.918Z,1038.77
2019-02-25T09:55:45.952Z,1038.78
2019-02-25T09:56:45.965Z,1038.75
2019-02-25T09:57:45.996Z,1038.75
2019-02-25T09:58:46.074Z,1038.71
2019-02-25T09:59:46.541Z,1038.77
2019-02-25T10:00:46.357Z,1038.74
2019-02-25T10:01:45.676Z,1038.71
2019-02-25T10:02:45.662Z,1038.73
2019-02-25T10:03:46.008Z,1038.69
2019-02-25T10:04:46.015Z,1038.72
2019-02-25T10:05:46.494Z,1038.72
2019-02-25T10:06:45.929Z,1038.68
2019-02-25T10:07:46.143Z,1038.67
2019-02-25T10:08:46.717Z,1038.66
2019-02-25T10:09:46.152Z,1038.64
2019-02-25T10:10:45.663Z,1038.61
2019-02-25T10:11:45.755Z,1038.56
2019-02-25T10:12:45.758Z,1038.5
2019-02-25T10:13:46.999Z,1038.54
2019-02-25T10:14:49.704Z,1038.52
2019-02-25T10:15:46.299Z,1038.51
2019-02-25T10:16:46.748Z,1038.55
2019-02-25T10:17:46.921Z,1038.52
2019-02-25T10:18:45.816Z,1038.54
2019-02-25T10:19:45.632Z,1038.5
2019-02-25T10:20:45.729Z,1038.48
2019-02-25T10:21:46.066Z,1038.49
2019-02-25T10:22:45.755Z,1038.45
2019-02-25T10:23:45.702Z,1038.42
2019-02-25T10:24:45.946Z,1038.46
2019-02-25T10:25:45.829Z,1038.46
2019-02-25T10:26:46.578Z,1038.48
2019-02-25T10:27:46.518Z,1038.47
2019-02-25T10:28:45.753Z,1038.48
2019-02-25T10:29:45.677Z,1038.44
2019-02-25T10:30:53.255Z,1038.43
2019-02-25T10:31:46.300Z,1038.42
2019-02-25T10:32:45.960Z,1038.41
2019-02-25T10:33:46.000Z,1038.33
2019-02-25T10:34:45.671Z,1038.35
2019-02-25T10:35:45.916Z,1038.31
2019-02-25T10:36:50.098Z,1038.34
2019-02-25T10:37:46.031Z,1038.32
2019-02-25T10:38:45.437Z,1038.29
2019-02-25T10:39:49.492Z,1038.3
2019-02-25T10:40:49.117Z,1038.34
2019-02-25T10:41:45.590Z,1038.29
2019-02-25T10:42:45.706Z,1038.27
2019-02-25T10:43:46.073Z,1038.26
2019-02-25T10:44:46.074Z,1038.2
2019-02-25T10:45:46.344Z,1038.24
2019-02-25T10:46:49.146Z,1038.24
2019-02-25T10:47:48.969Z,1038.2
2019-02-25T10:48:49.169Z,1038.19
2019-02-25T10:49:45.607Z,1038.15
2019-02-25T10:50:45.781Z,1038.1
2019-02-25T10:51:46.241Z,1038.17
2019-02-25T10:52:49.425Z,1038.17
2019-02-25T10:53:49.799Z,1038.17
2019-02-25T10:54:49.916Z,1038.15
2019-02-25T10:55:49.260Z,1038.15
2019-02-25T10:56:49.445Z,1038.15
2019-02-25T10:57:45.653Z,1038.14
2019-02-25T10:58:47.210Z,1038.14
2019-02-25T10:59:46.488Z,1038.13
2019-02-25T11:00:46.152Z,1038.11
2019-02-25T11:01:47.596Z,1038.07
2019-02-25T11:02:49.324Z,1038.06
2019-02-25T11:03:48.360Z,1038.06
2019-02-25T11:04:49.322Z,1038.05
2019-02-25T11:05:45.621Z,1038.04
2019-02-25T11:06:45.685Z,1038.07
2019-02-25T11:07:46.031Z,1038
2019-02-25T11:08:46.689Z,1038.02
2019-02-25T11:09:50.430Z,1037.98
2019-02-25T11:10:48.632Z,1037.91
2019-02-25T11:11:45.606Z,1037.86
2019-02-25T11:12:45.690Z,1037.83
2019-02-25T11:13:45.680Z,1037.84
2019-02-25T11:14:45.973Z,1037.78
2019-02-25T11:15:48.496Z,1037.79
2019-02-25T11:16:49.712Z,1037.78
2019-02-25T11:17:49.257Z,1037.82
2019-02-25T11:18:46.004Z,1037.79
2019-02-25T11:19:46.928Z,1037.77
2019-02-25T11:20:46.639Z,1037.8
2019-02-25T11:21:45.742Z,1037.76
2019-02-25T11:22:48.502Z,1037.78
2019-02-25T11:23:49.121Z,1037.71
2019-02-25T11:24:49.825Z,1037.72
2019-02-25T11:25:46.148Z,1037.7
2019-02-25T11:26:47.407Z,1037.7
2019-02-25T11:27:47.396Z,1037.68
2019-02-25T11:28:45.635Z,1037.64
2019-02-25T11:29:48.391Z,1037.67
2019-02-25T11:30:49.634Z,1037.62
2019-02-25T11:31:49.273Z,1037.66
2019-02-25T11:32:45.623Z,1037.65
2019-02-25T11:33:46.508Z,1037.66
2019-02-25T11:34:45.904Z,1037.59
2019-02-25T11:35:48.132Z,1037.6
2019-02-25T11:36:45.658Z,1037.59
2019-02-25T11:37:47.296Z,1037.57
2019-02-25T11:38:45.530Z,1037.54
2019-02-25T11:39:47.774Z,1037.61
2019-02-25T11:40:46.461Z,1037.58
2019-02-25T11:41:46.565Z,1037.6
2019-02-25T11:42:45.358Z,1037.56
2019-02-25T11:43:50.255Z,1037.6
2019-02-25T11:44:45.562Z,1037.56
2019-02-25T11:45:45.780Z,1037.59
2019-02-25T11:46:45.983Z,1037.61
2019-02-25T11:47:46.404Z,1037.61
2019-02-25T11:48:45.356Z,1037.66
2019-02-25T11:49:46.005Z,1037.63
2019-02-25T11:50:47.045Z,1037.66
2019-02-25T11:51:45.813Z,1037.64
2019-02-25T11:52:45.747Z,1037.58
2019-02-25T11:53:46.103Z,1037.58
2019-02-25T11:54:47.360Z,1037.59
2019-02-25T11:55:45.629Z,1037.58
2019-02-25T11:56:45.573Z,1037.58
2019-02-25T11:57:45.558Z,1037.59
2019-02-25T11:58:45.757Z,1037.59
2019-02-25T11:59:45.605Z,1037.57
2019-02-25T12:00:45.577Z,1037.58
2019-02-25T12:01:45.568Z,1037.56
2019-02-25T12:02:46.417Z,1037.53
2019-02-25T12:03:46.935Z,1037.52
2019-02-25T12:04:45.712Z,1037.53
2019-02-25T12:05:45.598Z,1037.55
2019-02-25T12:06:45.814Z,1037.52
2019-02-25T12:07:45.641Z,1037.51
2019-02-25T12:08:46.138Z,1037.45